Terminal Aerodrome Forecast
Issued by NWS

Home | Current Version | Previous Version | Text Only | Print | Product List | Glossary On
Versions: 1 2 3 4 5 6 7 8 9 10 11 12 13
065
FTUS45 KABQ 272331
TAFLVS
TAF
KLVS 272331Z 2800/2824 24024G33KT P6SM FEW120
     FM280600 22023KT P6SM BKN100
     FM281400 23028G38KT P6SM OVC080
     FM281900 27034G48KT 6SM BLSN OVC050=

USA.gov is the U.S. government's official web portal to all federal, state and local government web resources and services.